Time;durP1;ratioP1;P1;durP2;ratioP2;P2;SDS_P1;SDS_P2;PMS_P1;PMS_P2;Temp;Humidity;BMP_temperature;BMP_pressure;BME280_temperature;BME280_humidity;BME280_pressure;Samples;Min_cycle;Max_cycle;Signal;HPM_P1;HPM_P2
2022/04/28 00:00:02;;;;;;;13.43;7.10;;;;;;;;;;2105801;28;20047;-58
2022/04/28 00:01:04;;;;;;;13.18;6.85;;;;;;;;;;2105512;28;20044;-58
2022/04/28 00:02:05;;;;;;;;;;;;;;;;;;2106048;28;20058;-58
2022/04/28 00:03:07;;;;;;;10.48;6.15;;;;;;;;;;2105627;28;19946;-58
2022/04/28 00:04:08;;;;;;;12.30;5.95;;;;;;;;;;2105544;28;20131;-58
2022/04/28 00:05:10;;;;;;;13.02;5.88;;;;;;;;;;2105648;28;20123;-59
2022/04/28 00:06:11;;;;;;;12.57;6.43;;;;;;;;;;2105409;28;20522;-58
2022/04/28 00:07:12;;;;;;;12.63;5.80;;;;;;;;;;2105450;28;20124;-58
2022/04/28 00:08:14;;;;;;;15.57;6.72;;;;;;;;;;2105569;28;20117;-58
2022/04/28 00:09:14;;;;;;;13.02;7.18;;;;;;;;;;2105373;28;20425;-58
2022/04/28 00:10:16;;;;;;;15.07;7.80;;;;;;;;;;2105497;28;20052;-59
2022/04/28 00:11:17;;;;;;;13.52;7.43;;;;;;;;;;2105470;28;20135;-59
2022/04/28 00:12:18;;;;;;;14.53;7.53;;;;;;;;;;2105542;28;20509;-59
2022/04/28 00:13:19;;;;;;;14.95;7.47;;;;;;;;;;2105534;28;20052;-59
2022/04/28 00:14:20;;;;;;;15.60;7.88;;;;;;;;;;2105307;28;20505;-58
2022/04/28 00:15:22;;;;;;;14.25;7.22;;;;;;;;;;2105572;28;20081;-58
2022/04/28 00:16:23;;;;;;;14.75;7.40;;;;;;;;;;2105411;28;20512;-59
2022/04/28 00:17:25;;;;;;;14.90;7.70;;;;;;;;;;2105366;28;20075;-59
2022/04/28 00:18:25;;;;;;;16.20;7.90;;;;;;;;;;2104451;28;20052;-59
2022/04/28 00:19:27;;;;;;;13.90;6.93;;;;;;;;;;2097046;28;20631;-59
2022/04/28 00:20:28;;;;;;;15.93;7.90;;;;;;;;;;2097028;28;20561;-59
2022/04/28 00:21:29;;;;;;;16.10;7.70;;;;;;;;;;2097028;28;20052;-59
2022/04/28 00:22:30;;;;;;;13.97;7.73;;;;;;;;;;2097186;28;20556;-59
2022/04/28 00:23:31;;;;;;;14.88;7.97;;;;;;;;;;2096954;28;20572;-59
2022/04/28 00:24:32;;;;;;;18.42;7.65;;;;;;;;;;2097196;28;20044;-59
2022/04/28 00:25:34;;;;;;;13.43;7.18;;;;;;;;;;2097067;28;20044;-59
2022/04/28 00:26:35;;;;;;;18.08;8.20;;;;;;;;;;2097034;28;20471;-59
2022/04/28 00:27:36;;;;;;;19.73;8.47;;;;;;;;;;2096984;28;20139;-59
2022/04/28 00:28:37;;;;;;;20.27;8.50;;;;;;;;;;2096923;28;20131;-59
2022/04/28 00:29:38;;;;;;;19.57;8.50;;;;;;;;;;2097132;28;20515;-59
2022/04/28 00:30:39;;;;;;;15.93;8.52;;;;;;;;;;2098095;28;20132;-59
2022/04/28 00:31:47;;;;;;;14.13;7.65;;;;;;;;;;2097661;28;20740;-59
2022/04/28 00:32:49;;;;;;;15.30;6.93;;;;;;;;;;2097536;28;20106;-59
2022/04/28 00:33:50;;;;;;;14.35;7.30;;;;;;;;;;2098421;28;20052;-58
2022/04/28 00:34:51;;;;;;;14.85;7.45;;;;;;;;;;2098444;28;20067;-58
2022/04/28 00:35:53;;;;;;;14.77;7.03;;;;;;;;;;2098562;28;20131;-59
2022/04/28 00:36:54;;;;;;;13.70;7.30;;;;;;;;;;2098292;28;20067;-59
2022/04/28 00:37:55;;;;;;;13.50;6.57;;;;;;;;;;2098493;28;20044;-59
2022/04/28 00:38:56;;;;;;;13.88;6.75;;;;;;;;;;2098379;28;20135;-59
2022/04/28 00:39:57;;;;;;;11.40;5.90;;;;;;;;;;2098393;28;20075;-59
2022/04/28 00:40:58;;;;;;;13.05;6.18;;;;;;;;;;2098469;28;20167;-59
2022/04/28 00:41:59;;;;;;;11.52;5.57;;;;;;;;;;2098328;28;20478;-59
2022/04/28 00:44:16;;;;;;;12.68;6.30;;;;;;;;;;2098039;28;20040;-58
2022/04/28 00:45:17;;;;;;;11.35;5.70;;;;;;;;;;2098223;28;20113;-59
2022/04/28 00:46:19;;;;;;;9.82;5.50;;;;;;;;;;2098301;28;20494;-59
2022/04/28 00:47:22;;;;;;;9.35;4.95;;;;;;;;;;2098385;28;20076;-59
2022/04/28 00:51:03;;;;;;;11.13;5.95;;;;;;;;;;2098218;28;20045;-58
2022/04/28 00:52:05;;;;;;;8.90;4.25;;;;;;;;;;2098356;28;20060;-59
2022/04/28 00:53:09;;;;;;;11.30;4.60;;;;;;;;;;2105581;28;20448;-59
2022/04/28 00:54:10;;;;;;;9.93;4.45;;;;;;;;;;2106521;28;20560;-58
2022/04/28 00:55:11;;;;;;;9.73;4.22;;;;;;;;;;2106631;28;20123;-58
2022/04/28 00:56:13;;;;;;;10.57;4.45;;;;;;;;;;2106841;28;20127;-59
2022/04/28 00:57:14;;;;;;;9.90;4.65;;;;;;;;;;2106752;28;20143;-59
2022/04/28 00:58:15;;;;;;;11.45;5.32;;;;;;;;;;2106655;28;20634;-59
2022/04/28 00:59:17;;;;;;;7.95;4.45;;;;;;;;;;2106524;28;20059;-58
2022/04/28 01:00:18;;;;;;;12.07;5.15;;;;;;;;;;2106734;28;20122;-59
2022/04/28 01:01:19;;;;;;;9.10;4.45;;;;;;;;;;2106599;28;20543;-59
2022/04/28 01:02:21;;;;;;;9.53;4.47;;;;;;;;;;2106505;28;20040;-59
2022/04/28 01:03:23;;;;;;;10.93;5.75;;;;;;;;;;2106641;28;20334;-59
2022/04/28 01:04:24;;;;;;;13.15;5.65;;;;;;;;;;2106495;28;20566;-59
2022/04/28 01:05:26;;;;;;;13.68;5.93;;;;;;;;;;2106695;28;20055;-59
2022/04/28 01:06:27;;;;;;;13.40;5.72;;;;;;;;;;2106475;28;20488;-59
2022/04/28 01:07:28;;;;;;;6.90;4.43;;;;;;;;;;2106556;28;20485;-59
2022/04/28 01:08:29;;;;;;;11.82;5.07;;;;;;;;;;2106543;28;20400;-58
2022/04/28 01:09:30;;;;;;;5.53;3.22;;;;;;;;;;2106552;28;20044;-58
2022/04/28 01:10:31;;;;;;;7.82;4.15;;;;;;;;;;2106690;28;20315;-59
2022/04/28 01:11:33;;;;;;;7.28;3.22;;;;;;;;;;2106504;28;20078;-59
2022/04/28 01:12:36;;;;;;;6.05;3.65;;;;;;;;;;2106632;28;20127;-58
2022/04/28 01:13:36;;;;;;;7.95;3.53;;;;;;;;;;2106419;28;20128;-59
2022/04/28 01:14:38;;;;;;;6.33;3.40;;;;;;;;;;2106538;28;20409;-59
2022/04/28 01:15:43;;;;;;;6.15;3.13;;;;;;;;;;2106677;28;20044;-59
2022/04/28 01:16:44;;;;;;;9.57;4.10;;;;;;;;;;2106434;28;20176;-59
2022/04/28 01:17:45;;;;;;;7.68;4.00;;;;;;;;;;2106585;28;20047;-58
2022/04/28 01:18:47;;;;;;;9.10;4.45;;;;;;;;;;2102593;28;21734;-58
2022/04/28 01:19:47;;;;;;;11.95;5.25;;;;;;;;;;2098145;28;20138;-59
2022/04/28 01:20:49;;;;;;;8.23;4.07;;;;;;;;;;2098266;28;20174;-59
2022/04/28 01:21:50;;;;;;;10.10;4.32;;;;;;;;;;2098046;28;20501;-58
2022/04/28 01:22:52;;;;;;;6.65;3.20;;;;;;;;;;2098192;28;20037;-58
2022/04/28 01:23:54;;;;;;;8.15;3.83;;;;;;;;;;2098118;28;20119;-58
2022/04/28 01:24:56;;;;;;;7.22;3.53;;;;;;;;;;2098007;28;20095;-59
2022/04/28 01:25:56;;;;;;;5.57;3.08;;;;;;;;;;2098310;28;20398;-45
2022/04/28 01:26:59;;;;;;;8.57;3.40;;;;;;;;;;2098071;28;20052;-44
2022/04/28 01:28:00;;;;;;;7.68;3.65;;;;;;;;;;2098345;28;20053;-59
2022/04/28 01:29:01;;;;;;;4.70;3.03;;;;;;;;;;2098022;28;20056;-58
2022/04/28 01:30:03;;;;;;;5.32;3.63;;;;;;;;;;2098044;28;20371;-58
2022/04/28 01:31:05;;;;;;;6.25;3.35;;;;;;;;;;2097947;28;20135;-59
2022/04/28 01:32:06;;;;;;;;;;;;;;;;;;2098476;28;20139;-58
2022/04/28 01:33:07;;;;;;;5.35;3.45;;;;;;;;;;2098044;28;19921;-59
2022/04/28 01:34:08;;;;;;;5.43;2.87;;;;;;;;;;2097992;28;20494;-58
2022/04/28 01:35:09;;;;;;;7.32;3.40;;;;;;;;;;2098086;28;20053;-59
2022/04/28 01:36:10;;;;;;;9.98;4.13;;;;;;;;;;2097975;28;20474;-59
2022/04/28 01:37:12;;;;;;;7.50;3.65;;;;;;;;;;2097970;28;20178;-58
2022/04/28 01:38:13;;;;;;;4.65;3.05;;;;;;;;;;2098182;28;20053;-45
2022/04/28 01:39:14;;;;;;;5.47;2.33;;;;;;;;;;2098078;28;20098;-44
2022/04/28 01:40:16;;;;;;;4.85;2.92;;;;;;;;;;2097969;28;20490;-44
2022/04/28 01:41:17;;;;;;;5.15;2.78;;;;;;;;;;2097946;28;20124;-45
2022/04/28 01:42:18;;;;;;;5.88;2.90;;;;;;;;;;2098016;28;20135;-45
2022/04/28 01:43:19;;;;;;;5.50;2.60;;;;;;;;;;2098005;28;20056;-45
2022/04/28 01:44:20;;;;;;;5.38;3.10;;;;;;;;;;2097864;28;20827;-45
2022/04/28 01:45:21;;;;;;;5.80;3.20;;;;;;;;;;2098115;28;20119;-45
2022/04/28 01:46:22;;;;;;;3.92;2.30;;;;;;;;;;2097887;28;20569;-44
2022/04/28 01:47:24;;;;;;;4.63;2.97;;;;;;;;;;2097852;28;20052;-45
2022/04/28 01:48:25;;;;;;;4.68;2.25;;;;;;;;;;2097944;28;20408;-45
2022/04/28 01:49:26;;;;;;;4.10;2.25;;;;;;;;;;2097635;28;20105;-45
2022/04/28 01:50:27;;;;;;;5.30;2.72;;;;;;;;;;2097920;28;20381;-45
2022/04/28 01:55:27;;;;;;;5.00;2.53;;;;;;;;;;2097978;28;20449;-45
2022/04/28 01:56:28;;;;;;;3.35;2.20;;;;;;;;;;2097796;28;20131;-45
2022/04/28 01:57:29;;;;;;;4.27;2.40;;;;;;;;;;2097887;28;20048;-45
2022/04/28 01:58:31;;;;;;;4.78;2.50;;;;;;;;;;2097795;28;20056;-45
2022/04/28 01:59:32;;;;;;;4.85;2.33;;;;;;;;;;2097781;28;20409;-45
2022/04/28 02:00:34;;;;;;;6.05;2.33;;;;;;;;;;2097854;28;20136;-45
2022/04/28 02:01:35;;;;;;;7.60;2.53;;;;;;;;;;2098000;28;20048;-44
2022/04/28 02:02:36;;;;;;;6.00;2.53;;;;;;;;;;2097839;28;20048;-45
2022/04/28 02:03:37;;;;;;;7.03;3.13;;;;;;;;;;2097746;28;20131;-45
2022/04/28 02:04:39;;;;;;;5.47;2.58;;;;;;;;;;2097880;28;20048;-44
2022/04/28 02:05:40;;;;;;;5.28;2.67;;;;;;;;;;2097900;28;20127;-45
2022/04/28 02:06:42;;;;;;;4.70;2.80;;;;;;;;;;2097963;28;20045;-44
2022/04/28 02:07:44;;;;;;;5.35;2.33;;;;;;;;;;2097786;28;20048;-44
2022/04/28 02:08:46;;;;;;;;;;;;;;;;;;2098233;28;20131;-44
2022/04/28 02:09:47;;;;;;;3.45;2.50;;;;;;;;;;2097801;28;20436;-44
2022/04/28 02:10:49;;;;;;;4.25;2.45;;;;;;;;;;2097817;28;20040;-45
2022/04/28 02:11:49;;;;;;;6.50;2.88;;;;;;;;;;2097694;28;20559;-45
2022/04/28 02:12:52;;;;;;;5.38;2.58;;;;;;;;;;2097819;28;20044;-45
2022/04/28 02:13:53;;;;;;;5.05;2.55;;;;;;;;;;2097621;28;20140;-45
2022/04/28 02:14:54;;;;;;;5.53;2.83;;;;;;;;;;2097774;28;20040;-45
2022/04/28 02:15:55;;;;;;;4.32;2.72;;;;;;;;;;2097825;28;20123;-44
2022/04/28 02:16:56;;;;;;;7.38;2.30;;;;;;;;;;2097802;28;20058;-45
2022/04/28 02:17:57;;;;;;;5.38;2.25;;;;;;;;;;2097861;28;20493;-45
2022/04/28 02:18:59;;;;;;;7.27;2.93;;;;;;;;;;2097466;28;20297;-45
2022/04/28 02:20:02;;;;;;;5.18;2.65;;;;;;;;;;2097857;28;20109;-45
2022/04/28 02:21:03;;;;;;;4.47;2.40;;;;;;;;;;2097633;28;20050;-45
2022/04/28 02:22:04;;;;;;;3.70;2.08;;;;;;;;;;2097804;28;20127;-44
2022/04/28 02:23:05;;;;;;;4.13;2.53;;;;;;;;;;2097608;28;20481;-44
2022/04/28 02:24:07;;;;;;;4.70;2.55;;;;;;;;;;2097693;28;20047;-45
2022/04/28 02:25:09;;;;;;;4.43;2.45;;;;;;;;;;2097617;28;20560;-45
2022/04/28 02:26:10;;;;;;;6.53;2.58;;;;;;;;;;2097735;28;20131;-45
2022/04/28 02:27:11;;;;;;;4.25;2.22;;;;;;;;;;2097682;28;20500;-45
2022/04/28 02:28:12;;;;;;;3.22;2.38;;;;;;;;;;2098048;28;20127;-46
2022/04/28 02:29:13;;;;;;;4.00;2.37;;;;;;;;;;2097529;28;20056;-44
2022/04/28 02:30:15;;;;;;;5.07;2.63;;;;;;;;;;2097591;28;20197;-45
2022/04/28 02:31:16;;;;;;;;;;;;;;;;;;2098009;28;20053;-59
2022/04/28 02:32:17;;;;;;;4.82;2.60;;;;;;;;;;2097597;28;20410;-58
2022/04/28 02:33:19;;;;;;;3.13;2.15;;;;;;;;;;2097796;28;20082;-59
2022/04/28 02:34:20;;;;;;;6.95;2.58;;;;;;;;;;2097522;28;20585;-59
2022/04/28 02:35:21;;;;;;;4.07;2.40;;;;;;;;;;2097712;28;20048;-59
2022/04/28 02:36:24;;;;;;;3.47;2.15;;;;;;;;;;2097626;28;20179;-59
2022/04/28 02:37:25;;;;;;;3.17;1.90;;;;;;;;;;2097718;28;20440;-59
2022/04/28 02:38:26;;;;;;;6.43;2.30;;;;;;;;;;2097526;28;20075;-58
2022/04/28 02:39:27;;;;;;;4.40;2.35;;;;;;;;;;2097740;28;20041;-59
2022/04/28 02:40:29;;;;;;;4.38;2.60;;;;;;;;;;2097697;28;20123;-58
2022/04/28 02:41:30;;;;;;;5.68;2.60;;;;;;;;;;2097679;28;20222;-59
2022/04/28 02:42:31;;;;;;;4.68;2.22;;;;;;;;;;2097568;28;20055;-58
2022/04/28 02:43:32;;;;;;;4.18;2.28;;;;;;;;;;2097520;28;20049;-58
2022/04/28 02:44:34;;;;;;;3.50;2.03;;;;;;;;;;2097541;28;20051;-58
2022/04/28 02:45:35;;;;;;;6.00;2.38;;;;;;;;;;2104596;28;20478;-59
2022/04/28 02:46:36;;;;;;;4.32;2.45;;;;;;;;;;2106267;28;20054;-45
2022/04/28 02:47:37;;;;;;;4.25;2.10;;;;;;;;;;2105887;28;20048;-45
2022/04/28 02:48:38;;;;;;;3.60;2.00;;;;;;;;;;2105855;28;20044;-45
2022/04/28 02:49:39;;;;;;;3.95;2.17;;;;;;;;;;2105970;28;20051;-45
2022/04/28 02:50:41;;;;;;;4.18;1.55;;;;;;;;;;2106038;28;20044;-45
2022/04/28 02:51:42;;;;;;;3.72;2.22;;;;;;;;;;2105985;28;20135;-58
2022/04/28 02:52:43;;;;;;;3.92;2.63;;;;;;;;;;2105252;28;20044;-59
2022/04/28 02:53:44;;;;;;;4.10;2.20;;;;;;;;;;2105925;28;20346;-58
2022/04/28 02:54:45;;;;;;;3.40;2.05;;;;;;;;;;2106025;28;20468;-58
2022/04/28 02:55:47;;;;;;;3.50;2.35;;;;;;;;;;2105905;28;20044;-59
2022/04/28 02:56:48;;;;;;;4.63;2.33;;;;;;;;;;2105998;28;20052;-45
2022/04/28 02:57:49;;;;;;;3.28;2.03;;;;;;;;;;2106049;28;20071;-44
2022/04/28 02:58:50;;;;;;;3.83;2.47;;;;;;;;;;2105823;28;20047;-45
2022/04/28 02:59:51;;;;;;;4.03;2.10;;;;;;;;;;2105900;28;20123;-45
2022/04/28 03:00:52;;;;;;;3.38;1.75;;;;;;;;;;2105902;28;20043;-45
2022/04/28 03:01:53;;;;;;;3.25;2.10;;;;;;;;;;2105997;28;20386;-58
2022/04/28 03:02:54;;;;;;;3.10;2.10;;;;;;;;;;2105871;28;20386;-58
2022/04/28 03:03:55;;;;;;;4.63;2.42;;;;;;;;;;2105693;28;20277;-59
2022/04/28 03:04:58;;;;;;;6.05;2.45;;;;;;;;;;2105980;28;20075;-58
2022/04/28 03:11:17;;;;;;;4.05;1.98;;;;;;;;;;2105600;28;20135;-58
2022/04/28 03:12:18;;;;;;;3.85;2.05;;;;;;;;;;2105747;28;20493;-59
2022/04/28 03:13:21;;;;;;;4.57;2.22;;;;;;;;;;2105811;28;20702;-58
2022/04/28 03:14:22;;;;;;;3.90;2.13;;;;;;;;;;2105664;28;20130;-59
2022/04/28 03:15:24;;;;;;;4.37;2.33;;;;;;;;;;2105859;28;20128;-58
2022/04/28 03:16:25;;;;;;;6.43;2.65;;;;;;;;;;2105848;28;20048;-58
2022/04/28 03:17:27;;;;;;;4.35;2.28;;;;;;;;;;2105697;28;20135;-58
2022/04/28 03:18:28;;;;;;;4.18;2.47;;;;;;;;;;2104414;28;20290;-59
2022/04/28 03:19:29;;;;;;;4.55;2.45;;;;;;;;;;2097363;28;20493;-58
2022/04/28 03:20:30;;;;;;;3.90;1.90;;;;;;;;;;2097499;28;20056;-58
2022/04/28 03:21:31;;;;;;;4.67;2.20;;;;;;;;;;2097338;28;20076;-59
2022/04/28 03:22:36;;;;;;;3.85;2.13;;;;;;;;;;2097440;28;20105;-59
2022/04/28 03:23:37;;;;;;;4.35;2.10;;;;;;;;;;2097384;28;20056;-44
2022/04/28 03:24:38;;;;;;;3.33;2.10;;;;;;;;;;2097460;28;20045;-45
2022/04/28 03:25:40;;;;;;;4.30;2.28;;;;;;;;;;2097408;28;20076;-45
2022/04/28 03:26:42;;;;;;;3.42;2.17;;;;;;;;;;2097391;28;20098;-46
2022/04/28 03:27:43;;;;;;;3.33;2.03;;;;;;;;;;2097309;28;20494;-44
2022/04/28 03:28:44;;;;;;;3.15;2.03;;;;;;;;;;2097252;28;20131;-45
2022/04/28 03:29:45;;;;;;;3.55;2.42;;;;;;;;;;2097367;28;20089;-44
2022/04/28 03:30:46;;;;;;;3.88;2.20;;;;;;;;;;2097359;28;20094;-44
2022/04/28 03:31:47;;;;;;;4.50;2.35;;;;;;;;;;2097582;28;20201;-59
2022/04/28 03:32:49;;;;;;;4.65;2.17;;;;;;;;;;2097233;28;20494;-58
2022/04/28 03:33:50;;;;;;;4.60;2.45;;;;;;;;;;2097199;28;20101;-58
2022/04/28 03:34:51;;;;;;;5.43;2.72;;;;;;;;;;2097287;28;20679;-58
2022/04/28 03:35:52;;;;;;;4.32;2.40;;;;;;;;;;2097502;28;20058;-58
2022/04/28 03:36:53;;;;;;;4.07;2.65;;;;;;;;;;2097347;28;20064;-58
2022/04/28 03:37:54;;;;;;;5.38;2.17;;;;;;;;;;2097405;28;20045;-58
2022/04/28 03:38:55;;;;;;;5.57;2.80;;;;;;;;;;2097355;28;20147;-58
2022/04/28 03:39:56;;;;;;;6.68;2.60;;;;;;;;;;2097198;28;20139;-58
2022/04/28 03:40:57;;;;;;;7.57;2.97;;;;;;;;;;2097419;28;20053;-59
2022/04/28 03:41:59;;;;;;;4.13;2.23;;;;;;;;;;2088952;28;20060;-58
2022/04/28 03:43:00;;;;;;;4.78;2.63;;;;;;;;;;2088974;28;20496;-58
2022/04/28 03:44:02;;;;;;;3.67;2.72;;;;;;;;;;2088848;28;20099;-58
2022/04/28 03:45:03;;;;;;;4.70;2.43;;;;;;;;;;2089061;28;20076;-58
2022/04/28 03:46:05;;;;;;;3.78;2.30;;;;;;;;;;2088995;28;20347;-58
2022/04/28 03:47:06;;;;;;;5.18;2.15;;;;;;;;;;2089080;28;20299;-59
2022/04/28 03:48:09;;;;;;;4.55;2.65;;;;;;;;;;2088986;28;20053;-58
2022/04/28 03:49:10;;;;;;;4.57;2.40;;;;;;;;;;2088855;28;20131;-58
2022/04/28 03:50:11;;;;;;;4.53;2.40;;;;;;;;;;2089078;28;20076;-58
2022/04/28 03:51:12;;;;;;;3.20;2.35;;;;;;;;;;2088868;28;20072;-58
2022/04/28 03:52:14;;;;;;;5.50;2.50;;;;;;;;;;2088996;28;20044;-58
2022/04/28 03:53:15;;;;;;;3.35;2.08;;;;;;;;;;2088876;28;20401;-58
2022/04/28 03:54:16;;;;;;;3.23;2.63;;;;;;;;;;2089036;28;20084;-58
2022/04/28 03:55:17;;;;;;;3.38;2.20;;;;;;;;;;2088897;28;20440;-59
2022/04/28 03:56:18;;;;;;;4.05;2.13;;;;;;;;;;2089028;28;20128;-58
2022/04/28 03:57:20;;;;;;;2.50;1.60;;;;;;;;;;2088966;28;20141;-58
2022/04/28 03:58:21;;;;;;;2.70;1.77;;;;;;;;;;2089014;28;20049;-59
2022/04/28 03:59:22;;;;;;;4.15;2.17;;;;;;;;;;2088858;28;20049;-58
2022/04/28 04:00:25;;;;;;;3.70;2.20;;;;;;;;;;2088908;28;20044;-59
2022/04/28 04:01:26;;;;;;;3.45;1.95;;;;;;;;;;2089028;28;20124;-58
2022/04/28 04:02:28;;;;;;;3.58;1.90;;;;;;;;;;2088844;28;20102;-58
2022/04/28 04:03:30;;;;;;;4.20;2.30;;;;;;;;;;2088897;28;20052;-59
2022/04/28 04:04:31;;;;;;;2.63;2.08;;;;;;;;;;2088832;28;20045;-59
2022/04/28 04:05:33;;;;;;;2.77;2.00;;;;;;;;;;2090243;28;20052;-59
2022/04/28 04:06:34;;;;;;;3.17;2.10;;;;;;;;;;2090561;28;20049;-58
2022/04/28 04:07:38;;;;;;;3.15;1.98;;;;;;;;;;2090301;28;20048;-58
2022/04/28 04:08:39;;;;;;;2.92;1.63;;;;;;;;;;2090280;28;20127;-58
2022/04/28 04:09:40;;;;;;;2.67;1.67;;;;;;;;;;2090324;28;20851;-58
2022/04/28 04:10:41;;;;;;;3.00;1.83;;;;;;;;;;2090407;28;20147;-58
2022/04/28 04:11:42;;;;;;;3.63;1.65;;;;;;;;;;2090152;28;20051;-58
2022/04/28 04:12:44;;;;;;;4.28;1.85;;;;;;;;;;2090302;28;20055;-58
2022/04/28 04:13:45;;;;;;;3.22;2.05;;;;;;;;;;2090200;28;20047;-58
2022/04/28 04:14:46;;;;;;;4.57;2.10;;;;;;;;;;2090280;28;20470;-59
2022/04/28 04:15:50;;;;;;;4.50;1.77;;;;;;;;;;2090331;28;20132;-59
2022/04/28 04:16:51;;;;;;;2.97;1.80;;;;;;;;;;2090244;28;20482;-45
2022/04/28 04:17:52;;;;;;;2.40;1.63;;;;;;;;;;2090219;28;20496;-44
2022/04/28 04:18:53;;;;;;;2.63;1.65;;;;;;;;;;2094797;28;20285;-45
2022/04/28 04:19:54;;;;;;;2.27;1.70;;;;;;;;;;2098544;28;20083;-45
2022/04/28 04:20:55;;;;;;;4.38;1.60;;;;;;;;;;2098621;28;20147;-45
2022/04/28 04:21:58;;;;;;;3.17;1.47;;;;;;;;;;2098427;28;20087;-45
2022/04/28 04:23:00;;;;;;;3.17;1.70;;;;;;;;;;2098620;28;20072;-46
2022/04/28 04:24:01;;;;;;;2.50;1.40;;;;;;;;;;2098364;28;20052;-45
2022/04/28 04:25:03;;;;;;;3.42;1.50;;;;;;;;;;2098651;28;20049;-58
2022/04/28 04:26:05;;;;;;;2.47;1.50;;;;;;;;;;2098539;28;20135;-59
2022/04/28 04:27:06;;;;;;;4.82;1.80;;;;;;;;;;2098382;28;20489;-58
2022/04/28 04:28:07;;;;;;;1.90;1.30;;;;;;;;;;2098472;28;20105;-58
2022/04/28 04:29:08;;;;;;;2.60;1.48;;;;;;;;;;2098516;28;20127;-58
2022/04/28 04:32:49;;;;;;;3.03;1.52;;;;;;;;;;2098582;28;20127;-58
2022/04/28 04:33:50;;;;;;;2.25;1.27;;;;;;;;;;2098378;28;20123;-58
2022/04/28 04:34:52;;;;;;;2.17;1.47;;;;;;;;;;2098642;28;20045;-59
2022/04/28 04:35:53;;;;;;;2.03;1.40;;;;;;;;;;2098472;28;20049;-45
2022/04/28 04:36:54;;;;;;;1.92;1.10;;;;;;;;;;2098520;28;20127;-45
2022/04/28 04:37:55;;;;;;;3.17;1.40;;;;;;;;;;2104036;28;20534;-45
2022/04/28 04:38:56;;;;;;;1.75;1.20;;;;;;;;;;2106693;28;20051;-45
2022/04/28 04:39:57;;;;;;;2.50;1.45;;;;;;;;;;2106818;28;20131;-45
2022/04/28 04:40:58;;;;;;;2.58;1.80;;;;;;;;;;2106791;28;20048;-45
2022/04/28 04:41:59;;;;;;;2.33;1.42;;;;;;;;;;2107131;28;20050;-59
2022/04/28 04:43:01;;;;;;;2.13;1.10;;;;;;;;;;2106714;28;20052;-59
2022/04/28 04:44:03;;;;;;;2.00;1.27;;;;;;;;;;2106740;28;20050;-59
2022/04/28 04:45:05;;;;;;;2.45;1.27;;;;;;;;;;2106695;28;20048;-59
2022/04/28 04:46:06;;;;;;;4.20;1.30;;;;;;;;;;2106757;28;20052;-59
2022/04/28 04:47:12;;;;;;;3.28;1.30;;;;;;;;;;2106676;28;20062;-59
2022/04/28 04:48:13;;;;;;;1.33;1.10;;;;;;;;;;2106797;28;20122;-59
2022/04/28 04:49:14;;;;;;;3.40;1.60;;;;;;;;;;2106573;28;20281;-59
2022/04/28 04:50:15;;;;;;;2.22;1.42;;;;;;;;;;2106784;28;20051;-59
2022/04/28 04:51:16;;;;;;;1.50;1.30;;;;;;;;;;2106679;28;20051;-59
2022/04/28 04:52:21;;;;;;;2.08;1.33;;;;;;;;;;2106671;28;20471;-59
2022/04/28 04:53:22;;;;;;;2.10;1.33;;;;;;;;;;2106723;28;20135;-59
2022/04/28 04:54:23;;;;;;;3.70;1.60;;;;;;;;;;2106672;28;20071;-59
2022/04/28 04:55:24;;;;;;;2.47;1.23;;;;;;;;;;2106848;28;20107;-59
2022/04/28 04:56:25;;;;;;;2.60;1.40;;;;;;;;;;2106589;28;20048;-59
2022/04/28 04:57:26;;;;;;;2.78;1.58;;;;;;;;;;2106603;28;20178;-59
2022/04/28 04:58:27;;;;;;;1.95;1.17;;;;;;;;;;2106520;28;20054;-59
2022/04/28 04:59:29;;;;;;;2.25;1.30;;;;;;;;;;2106745;28;20130;-59
2022/04/28 05:00:30;;;;;;;2.70;1.40;;;;;;;;;;2106610;28;20146;-59
2022/04/28 05:01:31;;;;;;;2.03;1.40;;;;;;;;;;2106727;28;20052;-59
2022/04/28 05:02:32;;;;;;;2.90;1.52;;;;;;;;;;2106619;28;20105;-59
2022/04/28 05:03:33;;;;;;;1.65;1.30;;;;;;;;;;2106628;28;20047;-59
2022/04/28 05:04:35;;;;;;;2.25;1.20;;;;;;;;;;2106771;28;20101;-59
2022/04/28 05:05:36;;;;;;;1.95;1.27;;;;;;;;;;2106666;28;20140;-60
2022/04/28 05:06:37;;;;;;;2.23;1.30;;;;;;;;;;2106712;28;20485;-59
2022/04/28 05:07:38;;;;;;;2.25;1.40;;;;;;;;;;2106545;28;20397;-59
2022/04/28 05:08:39;;;;;;;1.70;1.13;;;;;;;;;;2106594;28;20048;-59
2022/04/28 05:09:42;;;;;;;1.98;1.38;;;;;;;;;;2106564;28;20455;-59
2022/04/28 05:10:43;;;;;;;3.05;1.30;;;;;;;;;;2106664;28;20048;-60
2022/04/28 05:11:44;;;;;;;1.73;1.27;;;;;;;;;;2106363;28;20481;-59
2022/04/28 05:12:46;;;;;;;4.38;1.40;;;;;;;;;;2106563;28;20039;-59
2022/04/28 05:13:47;;;;;;;3.33;1.45;;;;;;;;;;2106471;28;20583;-58
2022/04/28 05:14:48;;;;;;;2.53;1.40;;;;;;;;;;2106559;28;20051;-59
2022/04/28 05:15:49;;;;;;;3.15;1.48;;;;;;;;;;2106193;28;20135;-59
2022/04/28 05:16:51;;;;;;;1.83;1.27;;;;;;;;;;2106669;28;20102;-59
2022/04/28 05:17:51;;;;;;;2.25;1.17;;;;;;;;;;2106724;28;20131;-59
2022/04/28 05:18:53;;;;;;;2.50;1.40;;;;;;;;;;2101567;28;20044;-59
2022/04/28 05:19:56;;;;;;;2.78;1.58;;;;;;;;;;2098356;28;20131;-59
2022/04/28 05:20:57;;;;;;;3.47;1.85;;;;;;;;;;2097973;28;20131;-59
2022/04/28 05:21:58;;;;;;;4.30;1.92;;;;;;;;;;2098105;28;20037;-59
2022/04/28 05:22:59;;;;;;;3.08;1.70;;;;;;;;;;2098078;28;20576;-59
2022/04/28 05:24:00;;;;;;;3.07;1.50;;;;;;;;;;2098103;28;20063;-59
2022/04/28 05:25:02;;;;;;;4.45;1.75;;;;;;;;;;2098181;28;20131;-59
2022/04/28 05:26:03;;;;;;;1.85;1.10;;;;;;;;;;2098096;28;20400;-60
2022/04/28 05:27:04;;;;;;;3.38;1.60;;;;;;;;;;2098007;28;20127;-59
2022/04/28 05:28:05;;;;;;;1.80;1.10;;;;;;;;;;2098077;28;20044;-59
2022/04/28 05:29:06;;;;;;;2.03;1.17;;;;;;;;;;2098158;28;20074;-59
2022/04/28 05:30:11;;;;;;;2.08;1.17;;;;;;;;;;2097985;28;20406;-60
2022/04/28 05:31:12;;;;;;;4.47;1.40;;;;;;;;;;2098359;28;20117;-60
2022/04/28 05:32:13;;;;;;;1.70;1.27;;;;;;;;;;2098049;28;20076;-60
2022/04/28 05:33:14;;;;;;;2.38;1.40;;;;;;;;;;2098115;28;20132;-59
2022/04/28 05:34:15;;;;;;;2.43;1.30;;;;;;;;;;2097728;28;20567;-60
2022/04/28 05:35:16;;;;;;;3.75;1.42;;;;;;;;;;2098024;28;20059;-60
2022/04/28 05:36:17;;;;;;;2.23;1.10;;;;;;;;;;2098277;28;20056;-60
2022/04/28 05:37:19;;;;;;;3.28;1.23;;;;;;;;;;2098083;28;20068;-60
2022/04/28 05:38:20;;;;;;;1.65;1.05;;;;;;;;;;2098088;28;20128;-60
2022/04/28 05:39:21;;;;;;;2.10;1.15;;;;;;;;;;2098120;28;20135;-60
2022/04/28 05:40:22;;;;;;;2.70;1.30;;;;;;;;;;2098243;28;20132;-59
2022/04/28 05:41:24;;;;;;;1.85;0.98;;;;;;;;;;2097950;28;20282;-60
2022/04/28 05:45:41;;;;;;;3.88;1.40;;;;;;;;;;2097964;28;20349;-60
2022/04/28 05:46:26;;;;;;;3.83;1.42;;;;;;;;;;2098069;28;20128;-59
2022/04/28 05:47:27;;;;;;;;;;;;;;;;;;2098432;28;20044;-60
2022/04/28 05:48:29;;;;;;;4.05;1.50;;;;;;;;;;2097799;28;20285;-60
2022/04/28 05:49:30;;;;;;;3.42;1.60;;;;;;;;;;2098206;28;20136;-59
2022/04/28 05:50:33;;;;;;;2.63;1.45;;;;;;;;;;2097876;28;20130;-59
2022/04/28 05:51:34;;;;;;;2.55;1.50;;;;;;;;;;2097784;28;20632;-60
2022/04/28 05:52:35;;;;;;;1.90;1.30;;;;;;;;;;2097933;28;20127;-59
2022/04/28 05:53:36;;;;;;;1.70;1.20;;;;;;;;;;2097983;28;20295;-60
2022/04/28 05:54:39;;;;;;;3.30;1.60;;;;;;;;;;2097900;28;20124;-60
2022/04/28 05:55:41;;;;;;;6.13;1.60;;;;;;;;;;2097875;28;20135;-60
2022/04/28 05:56:42;;;;;;;3.05;1.50;;;;;;;;;;2097932;28;20097;-59
2022/04/28 05:57:43;;;;;;;3.10;1.38;;;;;;;;;;2097866;28;20609;-59
2022/04/28 05:58:45;;;;;;;2.73;1.30;;;;;;;;;;2097804;28;20273;-60
2022/04/28 05:59:45;;;;;;;2.95;1.27;;;;;;;;;;2097929;28;20041;-60
2022/04/28 06:00:47;;;;;;;3.08;1.50;;;;;;;;;;2097881;28;20536;-59
2022/04/28 06:01:49;;;;;;;2.75;1.38;;;;;;;;;;2097873;28;20083;-60
2022/04/28 06:02:50;;;;;;;2.33;1.33;;;;;;;;;;2097959;28;20055;-59
2022/04/28 06:03:52;;;;;;;1.92;1.38;;;;;;;;;;2097698;28;20044;-60
2022/04/28 06:04:53;;;;;;;2.97;1.38;;;;;;;;;;2098049;28;20398;-60
2022/04/28 06:05:54;;;;;;;2.80;1.63;;;;;;;;;;2098050;28;20127;-46
2022/04/28 06:06:55;;;;;;;3.45;1.65;;;;;;;;;;2097922;28;20086;-45
2022/04/28 06:07:56;;;;;;;3.33;1.70;;;;;;;;;;2097818;28;20052;-45
2022/04/28 06:08:57;;;;;;;1.92;1.23;;;;;;;;;;2097790;28;20523;-45
2022/04/28 06:09:59;;;;;;;3.97;1.67;;;;;;;;;;2097736;28;20049;-45
2022/04/28 06:11:01;;;;;;;2.25;1.30;;;;;;;;;;2097927;28;20581;-46
2022/04/28 06:12:02;;;;;;;1.90;1.33;;;;;;;;;;2097694;28;20396;-45
2022/04/28 06:13:03;;;;;;;2.38;1.30;;;;;;;;;;2097747;28;20098;-46
2022/04/28 06:14:04;;;;;;;3.15;1.38;;;;;;;;;;2097753;28;20375;-46
2022/04/28 06:15:06;;;;;;;2.73;1.17;;;;;;;;;;2097750;28;20118;-46
2022/04/28 06:16:07;;;;;;;3.13;1.35;;;;;;;;;;2097804;28;20131;-46
2022/04/28 06:17:09;;;;;;;1.92;1.27;;;;;;;;;;2097932;28;20514;-45
2022/04/28 06:18:10;;;;;;;;;;;;;;;;;;2098308;28;20048;-46
2022/04/28 06:19:11;;;;;;;2.10;1.17;;;;;;;;;;2097578;28;19920;-60
2022/04/28 06:20:12;;;;;;;3.27;1.50;;;;;;;;;;2097872;28;20131;-60
2022/04/28 06:21:18;;;;;;;2.63;1.10;;;;;;;;;;2097907;28;20474;-60
2022/04/28 06:22:19;;;;;;;1.38;0.80;;;;;;;;;;2097757;28;20480;-60
2022/04/28 06:23:20;;;;;;;2.10;1.07;;;;;;;;;;2097688;28;20048;-60
2022/04/28 06:24:21;;;;;;;4.50;1.00;;;;;;;;;;2097894;28;20345;-46
2022/04/28 06:25:23;;;;;;;1.73;0.97;;;;;;;;;;2097742;28;20048;-46
2022/04/28 06:26:24;;;;;;;1.20;0.70;;;;;;;;;;2097855;28;20123;-46